Time;durP1;ratioP1;P1;durP2;ratioP2;P2;SDS_P1;SDS_P2;PMS_P1;PMS_P2;Temp;Humidity;BMP_temperature;BMP_pressure;BME280_temperature;BME280_humidity;BME280_pressure;Samples;Min_cycle;Max_cycle;Signal;HPM_P1;HPM_P2
2021/03/13 00:01:10;;;;;;;33.22;6.82;;;4.70;99.90;;;;;;5088848;28;20496;-62
2021/03/13 00:03:36;;;;;;;31.50;6.93;;;4.70;99.90;;;;;;5089056;28;20060;-62
2021/03/13 00:06:01;;;;;;;33.03;7.23;;;4.70;99.90;;;;;;5089031;28;20148;-62
2021/03/13 00:08:27;;;;;;;40.00;7.83;;;4.60;99.90;;;;;;5089134;28;20664;-61
2021/03/13 00:10:53;;;;;;;30.93;6.77;;;4.60;99.90;;;;;;5088845;28;20098;-62
2021/03/13 00:13:19;;;;;;;29.27;6.87;;;4.50;99.90;;;;;;5088917;28;20063;-62
2021/03/13 00:15:45;;;;;;;30.00;7.20;;;4.50;99.90;;;;;;5088657;28;20048;-62
2021/03/13 00:18:12;;;;;;;23.13;6.70;;;4.60;99.90;;;;;;5086964;28;20146;-61
2021/03/13 00:20:39;;;;;;;32.97;7.10;;;4.60;99.90;;;;;;5088571;28;20119;-62
2021/03/13 00:23:06;;;;;;;29.75;8.15;;;4.50;99.90;;;;;;5089021;28;20051;-62
2021/03/13 00:25:34;;;;;;;37.92;9.20;;;4.60;99.90;;;;;;5088664;28;20055;-62
2021/03/13 00:28:01;;;;;;;33.53;7.80;;;4.60;99.90;;;;;;5088229;28;20055;-59
2021/03/13 00:30:33;;;;;;;27.10;7.03;;;4.50;99.90;;;;;;5088357;28;20059;-60
2021/03/13 00:33:05;;;;;;;28.70;7.22;;;4.50;99.90;;;;;;5088339;28;20351;-61
2021/03/13 00:35:33;;;;;;;30.27;7.75;;;4.50;99.90;;;;;;5120955;27;20048;-60
2021/03/13 00:37:59;;;;;;;36.53;7.78;;;4.50;99.90;;;;;;5088730;28;20066;-62
2021/03/13 00:40:28;;;;;;;25.50;7.05;;;4.50;99.90;;;;;;5088110;28;20494;-61
2021/03/13 00:42:54;;;;;;;32.17;8.15;;;4.60;99.90;;;;;;5088379;28;20084;-61
2021/03/13 00:45:24;;;;;;;30.08;7.72;;;4.60;99.90;;;;;;5088844;28;20056;-61
2021/03/13 00:47:51;;;;;;;25.58;6.93;;;4.60;99.90;;;;;;5087416;28;20044;-62
2021/03/13 00:50:20;;;;;;;25.02;7.00;;;4.70;99.90;;;;;;5120777;27;20064;-62
2021/03/13 00:52:46;;;;;;;27.70;7.80;;;4.70;99.90;;;;;;5088248;28;20052;-62
2021/03/13 00:55:13;;;;;;;26.70;7.07;;;4.70;99.90;;;;;;5087872;28;20116;-62
2021/03/13 00:57:39;;;;;;;32.22;7.80;;;4.80;99.90;;;;;;5088163;28;20573;-62
2021/03/13 01:00:06;;;;;;;33.23;7.60;;;4.80;99.90;;;;;;5088049;28;20044;-62
2021/03/13 01:02:32;;;;;;;33.78;8.25;;;4.80;99.90;;;;;;5088427;28;20082;-62
2021/03/13 01:04:58;;;;;;;31.13;8.15;;;4.80;99.90;;;;;;5086858;28;20745;-61
2021/03/13 01:07:24;;;;;;;27.80;8.77;;;4.90;99.90;;;;;;5088388;28;20131;-62
2021/03/13 01:09:50;;;;;;;38.40;8.27;;;4.90;99.90;;;;;;5088118;28;20382;-58
2021/03/13 01:12:16;;;;;;;31.67;8.50;;;5.00;99.90;;;;;;5088019;28;20076;-62
2021/03/13 01:14:42;;;;;;;28.80;8.00;;;5.10;99.90;;;;;;5088435;28;20083;-61
2021/03/13 01:17:08;;;;;;;26.00;7.90;;;5.20;99.90;;;;;;5088061;28;20055;-62
2021/03/13 01:19:34;;;;;;;27.20;7.33;;;5.20;99.90;;;;;;5088306;28;20044;-62
2021/03/13 01:21:59;;;;;;;30.67;8.07;;;5.20;99.90;;;;;;5088322;28;20765;-62
2021/03/13 01:24:25;;;;;;;27.40;7.17;;;5.30;99.90;;;;;;5088205;28;20072;-62
2021/03/13 01:26:51;;;;;;;27.03;8.00;;;5.30;99.90;;;;;;5087814;28;20052;-62
2021/03/13 01:29:17;;;;;;;21.80;7.43;;;5.40;99.90;;;;;;5087934;28;20075;-62
2021/03/13 01:31:43;;;;;;;31.40;7.50;;;5.40;99.90;;;;;;5087905;28;20086;-61
2021/03/13 01:34:09;;;;;;;30.23;7.80;;;5.40;99.90;;;;;;5087920;28;20120;-61
2021/03/13 01:36:34;;;;;;;27.47;7.33;;;5.50;99.90;;;;;;5088057;28;20092;-62
2021/03/13 01:39:00;;;;;;;31.83;8.23;;;5.40;99.90;;;;;;5087935;28;20090;-62
2021/03/13 01:41:26;;;;;;;28.47;6.87;;;5.50;99.80;;;;;;5087832;28;20048;-61
2021/03/13 01:43:51;;;;;;;28.10;7.37;;;5.50;99.90;;;;;;5087640;28;20044;-62
2021/03/13 01:46:17;;;;;;;27.63;7.10;;;5.50;99.80;;;;;;5087760;28;20052;-61
2021/03/13 01:48:48;;;;;;;23.83;7.20;;;5.50;99.70;;;;;;5087969;28;20113;-62
2021/03/13 01:51:15;;;;;;;21.77;7.40;;;5.50;99.90;;;;;;5087488;28;20123;-62
2021/03/13 01:53:40;;;;;;;30.92;7.18;;;5.60;99.80;;;;;;5088034;28;20105;-61
2021/03/13 01:56:06;;;;;;;32.57;7.50;;;5.60;99.80;;;;;;5087684;28;20406;-62
2021/03/13 01:58:32;;;;;;;27.60;7.33;;;5.60;99.70;;;;;;5087343;28;20463;-61
2021/03/13 02:00:58;;;;;;;29.57;8.07;;;5.60;99.70;;;;;;5090494;28;20169;-61
2021/03/13 02:03:24;;;;;;;26.27;7.35;;;5.70;99.60;;;;;;5091235;28;20565;-62
2021/03/13 02:05:51;;;;;;;20.00;6.27;;;5.70;99.60;;;;;;5091341;28;20075;-62
2021/03/13 02:08:35;;;;;;;26.02;6.97;;;5.70;99.20;;;;;;5089605;28;20071;-62
2021/03/13 02:11:11;;;;;;;25.85;6.20;;;5.70;99.20;;;;;;5091248;28;20074;-62
2021/03/13 02:14:07;;;;;;;25.83;6.30;;;5.70;99.80;;;;;;5091525;28;20068;-61
2021/03/13 02:16:56;;;;;;;24.98;5.90;;;5.60;99.40;;;;;;5091344;28;20048;-61
2021/03/13 02:20:02;;;;;;;26.17;5.85;;;5.70;99.40;;;;;;5090926;28;20052;-59
2021/03/13 02:22:31;;;;;;;21.90;6.00;;;5.60;99.90;;;;;;5090876;28;20090;-61
2021/03/13 02:25:03;;;;;;;19.27;5.60;;;5.60;99.40;;;;;;5090966;28;20122;-61
2021/03/13 02:27:42;;;;;;;17.35;5.82;;;5.60;99.30;;;;;;5090697;28;20053;-62
2021/03/13 02:30:13;;;;;;;23.15;5.25;;;5.60;99.20;;;;;;5091028;28;20072;-60
2021/03/13 02:32:57;;;;;;;21.33;5.53;;;5.60;99.40;;;;;;5090728;28;20113;-61
2021/03/13 02:35:39;;;;;;;21.13;5.90;;;5.60;99.30;;;;;;5091065;28;20743;-62
2021/03/13 02:38:12;;;;;;;19.17;5.10;;;5.70;99.10;;;;;;5090480;28;20052;-60
2021/03/13 02:40:40;;;;;;;22.58;5.22;;;5.60;99.40;;;;;;5090584;28;20048;-62
2021/03/13 02:43:09;;;;;;;19.27;5.07;;;5.70;99.10;;;;;;5090406;28;20052;-62
2021/03/13 02:45:38;;;;;;;18.27;5.18;;;5.70;99.20;;;;;;5090572;28;20052;-61
2021/03/13 02:48:10;;;;;;;17.50;4.40;;;5.80;99.40;;;;;;5090594;28;20047;-61
2021/03/13 02:50:39;;;;;;;19.15;4.80;;;5.70;99.40;;;;;;5088705;28;20074;-62
2021/03/13 02:53:06;;;;;;;19.45;5.20;;;5.80;98.70;;;;;;5090453;28;20076;-62
2021/03/13 02:55:33;;;;;;;24.05;5.65;;;5.80;98.90;;;;;;5090432;28;20047;-62
2021/03/13 02:58:03;;;;;;;16.13;4.53;;;5.80;99.30;;;;;;5090431;28;20055;-62
2021/03/13 03:00:36;;;;;;;15.80;4.50;;;5.80;99.20;;;;;;5088861;28;20059;-61
2021/03/13 03:03:04;;;;;;;14.98;4.30;;;5.80;98.90;;;;;;5090179;28;20101;-61
2021/03/13 03:05:30;;;;;;;15.00;3.92;;;5.80;99.00;;;;;;5090408;28;20060;-62
2021/03/13 03:08:01;;;;;;;13.48;3.60;;;5.90;99.00;;;;;;5090436;28;20405;-59
2021/03/13 03:10:31;;;;;;;14.43;3.53;;;5.80;98.80;;;;;;5090075;28;20120;-61
2021/03/13 03:12:57;;;;;;;17.77;4.43;;;5.80;98.90;;;;;;5089499;28;20094;-62
2021/03/13 03:15:26;;;;;;;13.82;3.20;;;5.80;99.20;;;;;;5090195;28;20262;-62
2021/03/13 03:17:54;;;;;;;17.70;4.47;;;5.80;99.20;;;;;;5089639;28;20143;-61
2021/03/13 03:20:22;;;;;;;11.10;3.65;;;5.80;99.40;;;;;;5090042;28;20109;-61
2021/03/13 03:22:48;;;;;;;14.23;4.05;;;5.70;99.80;;;;;;5089808;28;20071;-61
2021/03/13 03:25:14;;;;;;;15.30;3.97;;;5.70;99.90;;;;;;5089913;28;20455;-61
2021/03/13 03:27:52;;;;;;;12.10;4.27;;;5.70;99.90;;;;;;5089871;28;20329;-62
2021/03/13 03:30:25;;;;;;;11.80;4.97;;;5.60;99.90;;;;;;5089472;28;20409;-60
2021/03/13 03:32:51;;;;;;;14.07;4.63;;;5.60;99.90;;;;;;5089680;28;21105;-62
2021/03/13 03:35:19;;;;;;;12.50;4.70;;;5.50;99.90;;;;;;5089571;28;20466;-62
2021/03/13 03:37:45;;;;;;;14.48;4.80;;;5.50;99.90;;;;;;5089619;28;20121;-62
2021/03/13 03:40:14;;;;;;;11.23;4.65;;;5.40;99.90;;;;;;5089364;28;20084;-62
2021/03/13 03:42:53;;;;;;;14.95;4.88;;;5.40;99.90;;;;;;5089661;28;20048;-62
2021/03/13 03:45:22;;;;;;;14.07;4.63;;;5.40;99.90;;;;;;5089590;28;20055;-61
2021/03/13 03:47:49;;;;;;;20.25;5.65;;;5.40;99.90;;;;;;5089446;28;20052;-62
2021/03/13 03:50:16;;;;;;;10.80;4.93;;;5.40;99.90;;;;;;5089104;28;20130;-61
2021/03/13 03:52:47;;;;;;;13.85;4.85;;;5.40;99.90;;;;;;5088857;28;20383;-61
2021/03/13 03:55:15;;;;;;;14.75;5.07;;;5.40;99.90;;;;;;5089141;28;20131;-62
2021/03/13 03:57:42;;;;;;;12.35;5.60;;;5.40;99.90;;;;;;5089599;28;20056;-62
2021/03/13 04:00:09;;;;;;;15.48;5.60;;;5.40;99.90;;;;;;5088999;28;20118;-62
2021/03/13 04:02:37;;;;;;;13.90;5.55;;;5.40;99.90;;;;;;5089403;28;20052;-62
2021/03/13 04:05:04;;;;;;;12.43;4.93;;;5.30;99.90;;;;;;5089217;28;20044;-59
2021/03/13 04:07:30;;;;;;;14.90;5.32;;;5.30;99.90;;;;;;5089322;28;20048;-61
2021/03/13 04:09:58;;;;;;;10.10;4.57;;;5.30;99.90;;;;;;5088929;28;20048;-60
2021/03/13 04:12:25;;;;;;;11.45;4.45;;;5.30;99.90;;;;;;5089179;28;20367;-60
2021/03/13 04:14:51;;;;;;;14.10;5.00;;;5.30;99.90;;;;;;5089303;28;20135;-61
2021/03/13 04:17:18;;;;;;;10.90;5.40;;;5.30;99.90;;;;;;5121343;27;20048;-61
2021/03/13 04:19:44;;;;;;;11.07;4.95;;;5.30;99.90;;;;;;5088946;28;20063;-61
2021/03/13 04:22:10;;;;;;;9.93;5.23;;;5.30;99.90;;;;;;5088932;28;20339;-60
2021/03/13 04:24:39;;;;;;;7.60;4.68;;;5.30;99.90;;;;;;5088808;28;20131;-61
2021/03/13 04:27:05;;;;;;;8.55;4.78;;;5.20;99.90;;;;;;5088816;28;20135;-61
2021/03/13 04:29:31;;;;;;;10.40;4.90;;;5.30;99.90;;;;;;5088982;28;20044;-61
2021/03/13 04:31:59;;;;;;;9.50;5.03;;;5.30;99.90;;;;;;5088787;28;20108;-61
2021/03/13 04:34:25;;;;;;;11.27;5.53;;;5.30;99.90;;;;;;5088694;28;20051;-61
2021/03/13 04:36:52;;;;;;;8.80;5.43;;;5.30;99.90;;;;;;5088913;28;20066;-61
2021/03/13 04:39:18;;;;;;;11.02;5.78;;;5.30;99.90;;;;;;5088628;28;20059;-61
2021/03/13 04:41:45;;;;;;;9.07;6.00;;;5.30;99.90;;;;;;5088862;28;20084;-60
2021/03/13 04:44:11;;;;;;;7.90;5.55;;;5.30;99.90;;;;;;5088839;28;20051;-61
2021/03/13 04:46:37;;;;;;;12.47;5.80;;;5.30;99.90;;;;;;5088618;28;20044;-59
2021/03/13 04:49:06;;;;;;;14.23;6.00;;;5.40;99.90;;;;;;5088382;28;20432;-60
2021/03/13 04:51:32;;;;;;;11.20;6.45;;;5.40;99.90;;;;;;5088530;28;20675;-61
2021/03/13 04:53:59;;;;;;;9.98;6.18;;;5.40;99.90;;;;;;5088599;28;20123;-61
2021/03/13 04:56:25;;;;;;;9.98;5.68;;;5.40;99.90;;;;;;5088343;28;20180;-62
2021/03/13 04:58:51;;;;;;;15.17;6.70;;;5.40;99.90;;;;;;5104129;28;20159;-61
2021/03/13 05:01:16;;;;;;;7.97;5.60;;;5.40;99.90;;;;;;5108747;28;20046;-61
2021/03/13 05:03:42;;;;;;;12.00;6.80;;;5.40;99.90;;;;;;5108424;28;20297;-61
2021/03/13 05:06:08;;;;;;;11.70;6.47;;;5.40;99.90;;;;;;5108552;28;20392;-61
2021/03/13 05:08:34;;;;;;;11.68;6.78;;;5.50;99.90;;;;;;5108539;28;20075;-61
2021/03/13 05:11:00;;;;;;;12.13;6.57;;;5.50;99.90;;;;;;5108586;28;20083;-62
2021/03/13 05:13:26;;;;;;;12.73;6.77;;;5.50;99.90;;;;;;5107081;28;20052;-61
2021/03/13 05:15:51;;;;;;;9.57;5.27;;;5.50;99.90;;;;;;5108447;28;20048;-61
2021/03/13 05:18:17;;;;;;;12.10;5.50;;;5.60;99.90;;;;;;5108385;28;20108;-61
2021/03/13 05:20:43;;;;;;;7.80;5.90;;;5.60;99.90;;;;;;5108424;28;20050;-61
2021/03/13 05:23:08;;;;;;;9.73;6.03;;;5.60;99.90;;;;;;5108188;28;20584;-61
2021/03/13 05:25:43;;;;;;;11.47;6.13;;;5.60;99.90;;;;;;5109557;28;20040;-62
2021/03/13 05:28:09;;;;;;;11.43;5.43;;;5.60;99.90;;;;;;5108736;28;20073;-62
2021/03/13 05:30:34;;;;;;;13.07;6.63;;;5.60;99.90;;;;;;5108115;28;20047;-62
2021/03/13 05:33:00;;;;;;;8.73;5.33;;;5.60;99.90;;;;;;5107254;28;20031;-60
2021/03/13 05:35:26;;;;;;;9.90;5.83;;;5.70;99.90;;;;;;5110060;28;20052;-62
2021/03/13 05:37:51;;;;;;;13.40;5.73;;;5.70;99.90;;;;;;5111998;28;20130;-61
2021/03/13 05:40:17;;;;;;;11.37;6.30;;;5.70;99.90;;;;;;5111842;28;20389;-62
2021/03/13 05:42:43;;;;;;;13.77;6.07;;;5.70;99.90;;;;;;5111361;28;20047;-62
2021/03/13 05:45:10;;;;;;;7.60;5.27;;;5.80;99.90;;;;;;5112010;28;20058;-63
2021/03/13 05:47:37;;;;;;;10.05;6.20;;;5.70;99.90;;;;;;5111643;28;20414;-64
2021/03/13 05:50:09;;;;;;;8.25;5.60;;;5.80;99.90;;;;;;5111354;28;20047;-64
2021/03/13 05:52:37;;;;;;;13.48;6.13;;;5.80;99.90;;;;;;5112537;28;20043;-65
2021/03/13 05:55:05;;;;;;;10.73;5.38;;;5.80;99.90;;;;;;5112147;28;20339;-61
2021/03/13 05:57:31;;;;;;;11.85;5.80;;;5.90;99.90;;;;;;5111761;28;20052;-62
2021/03/13 05:59:57;;;;;;;10.88;6.25;;;5.90;99.90;;;;;;5111442;28;20385;-63
2021/03/13 06:02:24;;;;;;;12.98;6.30;;;5.90;99.90;;;;;;5111718;28;20043;-62
2021/03/13 06:04:51;;;;;;;13.80;5.85;;;5.90;99.90;;;;;;5111492;28;20047;-63
2021/03/13 06:07:26;;;;;;;12.88;6.50;;;5.90;99.90;;;;;;5110956;28;20507;-62
2021/03/13 06:09:56;;;;;;;11.82;6.40;;;5.90;99.90;;;;;;5111210;27;20118;-63
2021/03/13 06:12:23;;;;;;;13.57;6.65;;;6.00;99.90;;;;;;5111114;28;20055;-62
2021/03/13 06:14:53;;;;;;;10.57;5.63;;;6.00;99.90;;;;;;5110797;28;20082;-62
2021/03/13 06:17:22;;;;;;;12.95;6.18;;;6.00;99.90;;;;;;5110993;28;20096;-63
2021/03/13 06:19:50;;;;;;;12.75;6.35;;;6.00;99.90;;;;;;5110403;28;20150;-62
2021/03/13 06:22:41;;;;;;;12.45;5.78;;;6.00;99.90;;;;;;5111418;28;20047;-61
2021/03/13 06:25:15;;;;;;;9.77;5.55;;;6.00;99.90;;;;;;5111287;28;20051;-62
2021/03/13 06:27:42;;;;;;;13.00;5.43;;;6.00;99.90;;;;;;5111430;28;20066;-62
2021/03/13 06:30:10;;;;;;;9.88;5.97;;;6.00;99.90;;;;;;5111407;28;20043;-62
2021/03/13 06:32:36;;;;;;;9.57;4.70;;;6.00;99.90;;;;;;5111556;28;20150;-63
2021/03/13 06:35:21;;;;;;;8.20;4.47;;;6.10;99.90;;;;;;5111345;28;20133;-62
2021/03/13 06:37:47;;;;;;;8.93;5.03;;;6.10;99.90;;;;;;5111532;28;20086;-63
2021/03/13 06:40:34;;;;;;;7.07;4.70;;;6.10;99.90;;;;;;5111163;28;20820;-63
2021/03/13 06:43:02;;;;;;;9.32;4.70;;;6.10;99.90;;;;;;5111320;28;20128;-63
2021/03/13 06:45:28;;;;;;;8.10;4.45;;;6.10;99.90;;;;;;5110806;28;20111;-62
2021/03/13 06:47:54;;;;;;;8.15;4.07;;;6.10;99.90;;;;;;5110128;28;20051;-61
2021/03/13 06:50:28;;;;;;;7.57;3.50;;;6.20;99.90;;;;;;5111223;28;20059;-59
2021/03/13 06:53:08;;;;;;;4.78;2.50;;;6.20;99.90;;;;;;5111027;28;20039;-62
2021/03/13 06:55:35;;;;;;;11.35;3.13;;;6.20;99.90;;;;;;5110999;28;20052;-62
2021/03/13 06:58:11;;;;;;;4.70;2.00;;;6.10;99.90;;;;;;5111018;28;20048;-62
2021/03/13 07:00:38;;;;;;;4.80;1.55;;;6.10;99.90;;;;;;5111013;28;20068;-63
2021/03/13 07:03:11;;;;;;;2.78;1.17;;;6.10;99.90;;;;;;5110944;28;20075;-61
2021/03/13 07:05:38;;;;;;;5.38;1.60;;;6.00;99.90;;;;;;5110612;28;20164;-62
2021/03/13 07:08:30;;;;;;;3.13;1.42;;;5.90;99.90;;;;;;5110298;28;20039;-64
2021/03/13 07:11:10;;;;;;;3.95;1.33;;;5.90;99.90;;;;;;5104602;28;20040;-63
2021/03/13 07:13:48;;;;;;;3.97;1.52;;;5.70;99.90;;;;;;5108404;28;20123;-61
2021/03/13 07:16:21;;;;;;;4.45;1.30;;;5.70;99.90;;;;;;5110399;28;20082;-62
2021/03/13 07:18:48;;;;;;;6.90;1.60;;;5.70;99.90;;;;;;5098067;28;20066;-62
2021/03/13 07:21:15;;;;;;;3.83;1.80;;;5.60;99.90;;;;;;5107598;28;20074;-61
2021/03/13 07:23:49;;;;;;;7.70;1.88;;;5.60;99.90;;;;;;5110328;28;20572;-60
2021/03/13 07:26:16;;;;;;;7.10;2.20;;;5.60;99.90;;;;;;5110185;28;20047;-58
2021/03/13 07:28:43;;;;;;;10.90;2.83;;;5.70;99.90;;;;;;5109614;28;20071;-60
2021/03/13 07:31:11;;;;;;;8.73;2.17;;;5.70;99.90;;;;;;5109606;28;20056;-61
2021/03/13 07:33:40;;;;;;;10.52;2.17;;;5.70;99.90;;;;;;5110245;28;20208;-59
2021/03/13 07:36:10;;;;;;;10.88;2.15;;;5.70;99.90;;;;;;5109944;28;20109;-59
2021/03/13 07:38:41;;;;;;;13.63;2.33;;;5.70;99.90;;;;;;5109946;28;20176;-59
2021/03/13 07:41:14;;;;;;;9.38;2.10;;;5.60;99.90;;;;;;5110103;28;20089;-59
2021/03/13 07:43:42;;;;;;;12.40;2.20;;;5.60;99.90;;;;;;5109124;28;20369;-59
2021/03/13 07:46:10;;;;;;;16.58;3.38;;;5.60;99.90;;;;;;5110012;28;20044;-59
2021/03/13 07:48:37;;;;;;;17.77;3.15;;;5.60;99.90;;;;;;5127235;27;20051;-60
2021/03/13 07:51:04;;;;;;;11.30;2.70;;;5.50;99.90;;;;;;5130410;27;20054;-58
2021/03/13 07:53:39;;;;;;;15.02;3.25;;;5.60;99.90;;;;;;5111731;27;20051;-58
2021/03/13 07:56:11;;;;;;;15.18;2.60;;;5.80;99.90;;;;;;5110468;28;20473;-59
2021/03/13 07:58:40;;;;;;;11.23;2.58;;;6.00;99.90;;;;;;5109858;28;20046;-59
2021/03/13 08:01:07;;;;;;;12.50;2.00;;;6.20;99.90;;;;;;5110087;28;20543;-59
2021/03/13 08:03:34;;;;;;;15.38;2.40;;;6.30;99.90;;;;;;5108918;28;20108;-56
2021/03/13 08:06:04;;;;;;;16.90;2.90;;;6.40;99.90;;;;;;5110161;28;20108;-57
2021/03/13 08:08:52;;;;;;;15.27;3.08;;;6.40;99.90;;;;;;5110455;28;20489;-61
2021/03/13 08:11:21;;;;;;;17.65;3.10;;;6.50;99.90;;;;;;5110402;28;20069;-61
2021/03/13 08:13:50;;;;;;;20.30;3.20;;;6.40;99.90;;;;;;5108565;28;20050;-61
2021/03/13 08:16:20;;;;;;;20.48;3.22;;;6.40;99.90;;;;;;5105979;28;20147;-62
2021/03/13 08:18:50;;;;;;;23.23;3.42;;;6.30;99.90;;;;;;5101207;28;20115;-62
2021/03/13 08:21:18;;;;;;;17.70;3.63;;;6.30;99.90;;;;;;5107012;28;20651;-62
2021/03/13 08:23:54;;;;;;;18.77;3.30;;;6.20;99.40;;;;;;5108989;28;20670;-62
2021/03/13 08:26:41;;;;;;;15.38;2.97;;;6.10;98.60;;;;;;5107370;28;20171;-62
2021/03/13 08:29:08;;;;;;;15.00;3.13;;;6.00;99.00;;;;;;5094811;28;20060;-62
2021/03/13 08:31:36;;;;;;;19.15;3.20;;;6.00;99.20;;;;;;5109109;28;20043;-63
2021/03/13 08:34:02;;;;;;;19.58;3.47;;;6.10;99.80;;;;;;5108980;28;20050;-61
2021/03/13 08:36:40;;;;;;;20.93;3.00;;;6.20;98.80;;;;;;5108947;28;20122;-62
2021/03/13 08:39:10;;;;;;;19.70;3.58;;;6.30;97.50;;;;;;5106617;28;20070;-61
2021/03/13 08:41:42;;;;;;;21.77;3.10;;;6.40;96.60;;;;;;5108950;28;20043;-62
2021/03/13 08:44:27;;;;;;;22.45;3.22;;;6.50;95.80;;;;;;5106503;28;20040;-60
2021/03/13 08:47:06;;;;;;;20.10;3.67;;;6.60;96.90;;;;;;5108978;27;20067;-63
2021/03/13 08:49:31;;;;;;;15.82;3.35;;;6.60;98.00;;;;;;5106946;28;20051;-62
2021/03/13 08:52:09;;;;;;;17.30;3.20;;;6.60;97.50;;;;;;5108684;28;20576;-62
2021/03/13 08:54:37;;;;;;;15.68;2.60;;;6.70;97.60;;;;;;5109229;28;20051;-61
2021/03/13 08:57:08;;;;;;;20.63;3.53;;;6.90;97.10;;;;;;5107706;28;20052;-62
2021/03/13 08:59:35;;;;;;;20.58;2.95;;;7.20;96.30;;;;;;5108855;28;20044;-62
2021/03/13 09:02:06;;;;;;;16.25;3.10;;;7.30;95.70;;;;;;5109159;28;20035;-62
2021/03/13 09:04:34;;;;;;;13.52;2.72;;;7.40;94.60;;;;;;5108850;28;20463;-61
2021/03/13 09:07:01;;;;;;;20.55;3.80;;;7.40;94.70;;;;;;5109074;28;20122;-62
2021/03/13 09:09:29;;;;;;;22.23;4.03;;;7.50;94.60;;;;;;5109455;28;20057;-62
2021/03/13 09:11:57;;;;;;;17.97;3.30;;;7.60;95.70;;;;;;5112884;28;20141;-62
2021/03/13 09:14:24;;;;;;;16.00;2.87;;;7.70;94.50;;;;;;5113409;28;20328;-63
2021/03/13 09:16:49;;;;;;;21.97;3.73;;;7.70;93.40;;;;;;5113283;28;20350;-63
2021/03/13 09:19:15;;;;;;;20.87;3.70;;;7.40;93.20;;;;;;5113622;28;20732;-63
2021/03/13 09:21:41;;;;;;;21.90;3.10;;;7.40;93.50;;;;;;5113153;28;20043;-63
2021/03/13 09:24:16;;;;;;;21.03;3.43;;;7.50;93.50;;;;;;5112946;28;20797;-63
2021/03/13 09:26:46;;;;;;;16.50;3.30;;;7.50;93.10;;;;;;5112934;28;20043;-62
2021/03/13 09:29:12;;;;;;;18.27;3.40;;;7.40;91.70;;;;;;5112305;28;20309;-64
2021/03/13 09:31:38;;;;;;;15.20;3.07;;;7.50;92.60;;;;;;5112009;28;20690;-61
2021/03/13 09:34:18;;;;;;;17.80;3.10;;;7.50;91.70;;;;;;5113141;28;20420;-62
2021/03/13 09:36:46;;;;;;;17.80;3.50;;;7.50;90.30;;;;;;5112714;28;20065;-67
2021/03/13 09:39:19;;;;;;;18.20;3.20;;;7.60;91.90;;;;;;5113689;28;20365;-67
2021/03/13 09:42:10;;;;;;;17.63;3.00;;;7.70;92.50;;;;;;5112730;28;20645;-68
2021/03/13 09:44:41;;;;;;;18.47;3.17;;;7.80;93.00;;;;;;5112651;27;20297;-67
2021/03/13 09:47:32;;;;;;;20.90;3.97;;;7.50;91.50;;;;;;5112189;28;20820;-67
2021/03/13 09:50:00;;;;;;;16.67;2.90;;;7.50;92.10;;;;;;5121934;27;20290;-66
2021/03/13 09:52:31;;;;;;;18.07;3.23;;;7.50;92.50;;;;;;5116716;28;20324;-61
2021/03/13 09:55:12;;;;;;;25.87;4.70;;;7.60;93.20;;;;;;5114516;28;20336;-64
2021/03/13 09:57:40;;;;;;;20.33;4.67;;;7.90;93.20;;;;;;5112488;28;20810;-61
2021/03/13 10:00:21;;;;;;;16.77;3.23;;;8.10;92.10;;;;;;5112004;28;20392;-60
2021/03/13 10:02:51;;;;;;;24.43;4.30;;;8.30;92.00;;;;;;5112044;28;20717;-59
2021/03/13 10:05:19;;;;;;;17.70;3.20;;;8.20;91.30;;;;;;5116492;28;20961;-60
2021/03/13 10:07:47;;;;;;;17.40;3.77;;;8.10;91.50;;;;;;5132120;28;20338;-63
2021/03/13 10:10:15;;;;;;;15.17;2.80;;;7.90;90.70;;;;;;5119833;27;20338;-60
2021/03/13 10:12:46;;;;;;;11.17;2.20;;;7.70;91.80;;;;;;5112093;28;20791;-62
2021/03/13 10:15:13;;;;;;;11.30;2.47;;;7.50;91.70;;;;;;5111260;28;20381;-61
2021/03/13 10:17:49;;;;;;;13.03;2.90;;;7.30;91.90;;;;;;5111078;28;20651;-62
2021/03/13 10:20:15;;;;;;;13.77;2.67;;;7.20;92.90;;;;;;5111114;28;20418;-63
2021/03/13 10:22:41;;;;;;;15.50;3.20;;;7.20;92.30;;;;;;5110879;28;20320;-62
2021/03/13 10:25:08;;;;;;;18.40;3.17;;;7.30;91.30;;;;;;5111871;28;20341;-59
2021/03/13 10:27:35;;;;;;;18.27;3.40;;;7.50;92.50;;;;;;5110528;28;20101;-60
2021/03/13 10:30:05;;;;;;;15.67;3.10;;;7.60;92.20;;;;;;5111283;27;20352;-63
2021/03/13 10:32:33;;;;;;;13.53;3.23;;;7.70;91.60;;;;;;5111450;28;20297;-63
2021/03/13 10:35:10;;;;;;;19.67;2.87;;;7.80;92.00;;;;;;5111369;28;20308;-62
2021/03/13 10:37:45;;;;;;;18.77;3.50;;;8.00;90.50;;;;;;5110797;28;20350;-61
2021/03/13 10:40:37;;;;;;;19.57;3.57;;;8.20;88.50;;;;;;5110683;28;20426;-62
2021/03/13 10:43:21;;;;;;;16.20;3.30;;;8.30;89.80;;;;;;5111160;28;20438;-62
2021/03/13 10:45:56;;;;;;;19.65;3.42;;;8.30;90.70;;;;;;5110713;28;20620;-60
2021/03/13 10:48:26;;;;;;;15.00;2.90;;;8.20;90.60;;;;;;5111491;28;20118;-62
2021/03/13 10:50:53;;;;;;;18.23;3.20;;;8.30;91.20;;;;;;5111274;28;20370;-62
2021/03/13 10:53:38;;;;;;;18.50;3.47;;;8.20;91.10;;;;;;5110957;28;20423;-61
2021/03/13 10:56:10;;;;;;;17.77;3.47;;;8.10;91.40;;;;;;5109405;28;20301;-62
2021/03/13 10:58:44;;;;;;;20.90;3.27;;;8.20;91.30;;;;;;5111292;28;20301;-65
2021/03/13 11:01:11;;;;;;;18.38;3.38;;;8.30;90.60;;;;;;5113348;28;20293;-64
2021/03/13 11:03:36;;;;;;;21.37;3.70;;;8.60;89.40;;;;;;5111598;28;20071;-61
2021/03/13 11:06:03;;;;;;;23.10;4.23;;;9.00;89.20;;;;;;5109151;28;20321;-61
2021/03/13 11:08:29;;;;;;;22.30;4.10;;;9.00;86.90;;;;;;5111004;28;20054;-60
2021/03/13 11:10:56;;;;;;;15.27;3.27;;;8.90;84.90;;;;;;5110986;28;20694;-61
2021/03/13 11:13:24;;;;;;;16.67;3.23;;;8.80;85.70;;;;;;5110503;28;20066;-62
2021/03/13 11:15:50;;;;;;;18.57;3.37;;;8.70;84.80;;;;;;5110789;28;20325;-60
2021/03/13 11:18:16;;;;;;;18.67;3.13;;;8.80;84.40;;;;;;5110541;28;20812;-61
2021/03/13 11:20:43;;;;;;;16.63;2.77;;;8.80;81.20;;;;;;5110321;28;20298;-60
2021/03/13 11:23:09;;;;;;;11.53;2.40;;;8.70;79.60;;;;;;5110372;28;20323;-61
2021/03/13 11:25:35;;;;;;;11.07;2.40;;;8.60;80.10;;;;;;5110492;28;20302;-61
2021/03/13 11:28:02;;;;;;;17.03;3.23;;;8.60;81.00;;;;;;5110311;28;20424;-61
2021/03/13 11:30:29;;;;;;;12.77;2.63;;;8.70;78.00;;;;;;5110083;28;20320;-61
2021/03/13 11:32:55;;;;;;;11.37;2.50;;;8.80;78.80;;;;;;5109504;28;20660;-61
2021/03/13 11:35:21;;;;;;;12.67;2.57;;;8.80;76.20;;;;;;5110451;28;20308;-56
2021/03/13 11:37:47;;;;;;;12.03;2.53;;;8.90;74.90;;;;;;5109990;28;20297;-63
2021/03/13 11:40:15;;;;;;;17.37;3.17;;;9.10;76.30;;;;;;5110346;28;20146;-61
2021/03/13 11:42:41;;;;;;;11.83;2.20;;;9.30;76.70;;;;;;5110207;28;20302;-60
2021/03/13 11:45:10;;;;;;;14.83;3.03;;;9.30;73.20;;;;;;5110089;28;20353;-60
2021/03/13 11:47:37;;;;;;;15.17;2.83;;;9.20;72.80;;;;;;5110475;28;20290;-60
2021/03/13 11:50:08;;;;;;;14.07;2.40;;;9.10;73.60;;;;;;5109840;28;20782;-61
2021/03/13 11:52:35;;;;;;;14.20;3.10;;;9.40;75.10;;;;;;5109644;28;20289;-63
2021/03/13 11:55:01;;;;;;;14.10;2.73;;;9.40;73.70;;;;;;5109690;28;20300;-61
2021/03/13 11:57:26;;;;;;;15.90;3.30;;;9.50;75.60;;;;;;5109792;28;20293;-60
2021/03/13 11:59:53;;;;;;;16.03;3.13;;;9.40;75.70;;;;;;5108872;28;20124;-61
2021/03/13 12:02:19;;;;;;;16.60;3.53;;;9.40;76.10;;;;;;5109780;28;20748;-57
2021/03/13 12:04:46;;;;;;;17.20;3.07;;;9.40;76.40;;;;;;5109837;28;20069;-60
2021/03/13 12:07:12;;;;;;;15.47;2.90;;;9.30;75.80;;;;;;5110079;28;20297;-58
2021/03/13 12:09:39;;;;;;;18.10;2.87;;;9.30;77.60;;;;;;5109224;28;20309;-60
2021/03/13 12:12:06;;;;;;;16.80;3.50;;;9.20;76.60;;;;;;5113089;28;20468;-58
2021/03/13 12:14:34;;;;;;;10.10;2.20;;;8.60;80.70;;;;;;5115402;28;20322;-60
2021/03/13 12:17:06;;;;;;;9.00;2.40;;;7.60;90.80;;;;;;5109354;28;20297;-59
2021/03/13 12:19:32;;;;;;;11.17;2.13;;;6.80;91.90;;;;;;5109653;28;20759;-58
2021/03/13 12:22:00;;;;;;;11.10;1.97;;;6.30;94.00;;;;;;5109683;28;20340;-58
2021/03/13 12:24:26;;;;;;;10.87;2.17;;;5.80;99.30;;;;;;5109782;28;20056;-57
2021/03/13 12:26:52;;;;;;;12.13;2.33;;;5.10;99.90;;;;;;5109619;28;20791;-56
2021/03/13 12:29:18;;;;;;;10.77;2.60;;;5.70;99.90;;;;;;5109267;28;20513;-58
2021/03/13 12:31:44;;;;;;;14.07;2.63;;;5.90;99.90;;;;;;5109645;28;20109;-57
2021/03/13 12:34:10;;;;;;;13.93;2.40;;;6.10;99.90;;;;;;5107508;27;20507;-57
2021/03/13 12:36:35;;;;;;;12.55;2.38;;;6.20;98.90;;;;;;5098174;28;20075;-57
2021/03/13 12:39:02;;;;;;;12.87;2.23;;;6.40;98.70;;;;;;5089456;28;20090;-57
2021/03/13 12:41:28;;;;;;;14.10;2.42;;;6.70;98.40;;;;;;5087649;28;20481;-58
2021/03/13 12:43:54;;;;;;;9.43;2.17;;;6.80;97.50;;;;;;5088469;28;20040;-58
2021/03/13 12:46:20;;;;;;;13.27;2.53;;;7.00;96.20;;;;;;5089076;28;20096;-56
2021/03/13 12:48:47;;;;;;;11.97;2.20;;;7.10;95.80;;;;;;5088974;28;20689;-56
2021/03/13 12:51:14;;;;;;;9.73;2.10;;;7.20;95.40;;;;;;5089078;28;20116;-56
2021/03/13 12:53:40;;;;;;;11.90;2.25;;;7.10;94.40;;;;;;5088912;28;20510;-57
2021/03/13 12:56:06;;;;;;;10.93;2.42;;;7.10;93.60;;;;;;5105874;28;20095;-57
2021/03/13 12:58:32;;;;;;;10.63;2.27;;;7.00;94.90;;;;;;5109414;28;20123;-57